Terminal Aerodrome Forecast
Issued by NWS

Home | Current Version | Previous Version | Text Only | Print | Product List | Glossary On
Versions: 1 2 3 4 5 6 7 8 9 10 11 12 13 14 15 16 17 18 19 20 21 22 23 24 25 26
000
FTAK31 PAFA 200006 AAA
TAFAFA
TAF AMD
PAFA 200006Z 2000/2106 36005KT P6SM -SHRA VCTS FEW008 BKN020CB
      OVC050
     FM200700 36005KT P6SM OVC025
     FM201400 03004KT 5SM BR VCSH BKN007 OVC020
     FM201900 06005KT P6SM VCSH OVC015
     FM202200 06005KT P6SM -SHRA VCTS SCT035 SCT050CB BKN070=

USA.gov is the U.S. government's official web portal to all federal, state and local government web resources and services.